sensor_id;sensor_type;location;lat;lon;timestamp;temperature;humidity
4556;DHT22;2290;48.674;9.018;2023-09-18T00:00:43;20.50;99.90
4556;DHT22;2290;48.674;9.018;2023-09-18T00:03:09;20.40;99.90
4556;DHT22;2290;48.674;9.018;2023-09-18T00:05:35;20.40;99.90
4556;DHT22;2290;48.674;9.018;2023-09-18T00:08:00;20.40;99.90
4556;DHT22;2290;48.674;9.018;2023-09-18T00:10:27;20.40;99.90
4556;DHT22;2290;48.674;9.018;2023-09-18T00:12:54;20.40;99.90
4556;DHT22;2290;48.674;9.018;2023-09-18T00:15:20;20.50;99.90
4556;DHT22;2290;48.674;9.018;2023-09-18T00:17:45;20.40;99.90
4556;DHT22;2290;48.674;9.018;2023-09-18T00:20:11;20.30;99.90
4556;DHT22;2290;48.674;9.018;2023-09-18T00:22:39;20.20;99.90
4556;DHT22;2290;48.674;9.018;2023-09-18T00:25:04;20.20;99.90
4556;DHT22;2290;48.674;9.018;2023-09-18T00:27:30;20.10;99.90
4556;DHT22;2290;48.674;9.018;2023-09-18T00:29:56;20.10;99.90
4556;DHT22;2290;48.674;9.018;2023-09-18T00:32:21;20.10;99.90
4556;DHT22;2290;48.674;9.018;2023-09-18T00:34:47;20.10;99.90
4556;DHT22;2290;48.674;9.018;2023-09-18T00:37:12;20.00;99.90
4556;DHT22;2290;48.674;9.018;2023-09-18T00:39:38;19.90;99.90
4556;DHT22;2290;48.674;9.018;2023-09-18T00:42:04;19.90;99.90
4556;DHT22;2290;48.674;9.018;2023-09-18T00:44:29;19.90;99.90
4556;DHT22;2290;48.674;9.018;2023-09-18T00:46:55;19.90;99.90
4556;DHT22;2290;48.674;9.018;2023-09-18T00:49:22;19.90;99.90
4556;DHT22;2290;48.674;9.018;2023-09-18T00:51:49;19.90;99.90
4556;DHT22;2290;48.674;9.018;2023-09-18T00:54:16;20.10;99.90
4556;DHT22;2290;48.674;9.018;2023-09-18T00:56:42;20.10;99.90
4556;DHT22;2290;48.674;9.018;2023-09-18T00:59:08;20.00;99.90
4556;DHT22;2290;48.674;9.018;2023-09-18T01:01:35;20.10;99.90
4556;DHT22;2290;48.674;9.018;2023-09-18T01:04:00;20.10;99.90
4556;DHT22;2290;48.674;9.018;2023-09-18T01:06:26;20.10;99.90
4556;DHT22;2290;48.674;9.018;2023-09-18T01:08:55;20.10;99.90
4556;DHT22;2290;48.674;9.018;2023-09-18T01:14:23;20.20;99.90
4556;DHT22;2290;48.674;9.018;2023-09-18T01:16:56;20.30;99.90
4556;DHT22;2290;48.674;9.018;2023-09-18T01:19:41;20.30;99.90
4556;DHT22;2290;48.674;9.018;2023-09-18T01:22:08;20.30;99.90
4556;DHT22;2290;48.674;9.018;2023-09-18T01:24:35;20.40;99.90
4556;DHT22;2290;48.674;9.018;2023-09-18T01:27:01;20.50;99.90
4556;DHT22;2290;48.674;9.018;2023-09-18T01:29:27;20.60;99.90
4556;DHT22;2290;48.674;9.018;2023-09-18T01:31:53;20.70;99.90
4556;DHT22;2290;48.674;9.018;2023-09-18T01:34:21;20.80;99.90
4556;DHT22;2290;48.674;9.018;2023-09-18T01:36:49;20.90;99.90
4556;DHT22;2290;48.674;9.018;2023-09-18T01:39:17;20.90;99.90
4556;DHT22;2290;48.674;9.018;2023-09-18T01:41:43;21.00;99.90
4556;DHT22;2290;48.674;9.018;2023-09-18T01:44:09;21.10;99.90
4556;DHT22;2290;48.674;9.018;2023-09-18T01:46:34;21.10;99.90
4556;DHT22;2290;48.674;9.018;2023-09-18T01:49:03;21.10;99.90
4556;DHT22;2290;48.674;9.018;2023-09-18T01:51:29;21.20;99.90
4556;DHT22;2290;48.674;9.018;2023-09-18T01:53:55;21.20;99.90
4556;DHT22;2290;48.674;9.018;2023-09-18T01:56:23;21.00;99.90
4556;DHT22;2290;48.674;9.018;2023-09-18T01:58:49;20.90;99.90
4556;DHT22;2290;48.674;9.018;2023-09-18T02:01:15;20.70;99.90
4556;DHT22;2290;48.674;9.018;2023-09-18T02:03:40;20.60;99.90
4556;DHT22;2290;48.674;9.018;2023-09-18T02:06:07;20.50;99.90
4556;DHT22;2290;48.674;9.018;2023-09-18T02:08:32;20.50;99.90
4556;DHT22;2290;48.674;9.018;2023-09-18T02:10:58;20.60;99.90
4556;DHT22;2290;48.674;9.018;2023-09-18T02:13:23;20.60;99.90
4556;DHT22;2290;48.674;9.018;2023-09-18T02:15:49;20.50;99.90
4556;DHT22;2290;48.674;9.018;2023-09-18T02:18:14;20.50;99.90
4556;DHT22;2290;48.674;9.018;2023-09-18T02:20:41;20.50;99.90
4556;DHT22;2290;48.674;9.018;2023-09-18T02:23:07;20.40;99.90
4556;DHT22;2290;48.674;9.018;2023-09-18T02:25:32;20.40;99.90
4556;DHT22;2290;48.674;9.018;2023-09-18T02:27:58;20.40;99.90
4556;DHT22;2290;48.674;9.018;2023-09-18T02:30:24;20.40;99.90
4556;DHT22;2290;48.674;9.018;2023-09-18T02:32:49;20.50;99.90
4556;DHT22;2290;48.674;9.018;2023-09-18T02:35:15;20.40;99.90
4556;DHT22;2290;48.674;9.018;2023-09-18T02:37:41;20.30;99.90
4556;DHT22;2290;48.674;9.018;2023-09-18T02:40:07;20.30;99.90
4556;DHT22;2290;48.674;9.018;2023-09-18T02:42:33;20.30;99.90
4556;DHT22;2290;48.674;9.018;2023-09-18T02:44:58;20.20;99.90
4556;DHT22;2290;48.674;9.018;2023-09-18T02:47:24;20.10;99.90
4556;DHT22;2290;48.674;9.018;2023-09-18T02:49:50;20.00;99.90
4556;DHT22;2290;48.674;9.018;2023-09-18T02:52:15;19.90;99.90
4556;DHT22;2290;48.674;9.018;2023-09-18T02:54:41;19.80;99.90
4556;DHT22;2290;48.674;9.018;2023-09-18T02:57:06;19.80;99.90
4556;DHT22;2290;48.674;9.018;2023-09-18T02:59:32;19.70;99.90
4556;DHT22;2290;48.674;9.018;2023-09-18T03:01:57;19.70;99.90
4556;DHT22;2290;48.674;9.018;2023-09-18T03:04:23;19.70;99.90
4556;DHT22;2290;48.674;9.018;2023-09-18T03:06:48;19.90;99.90
4556;DHT22;2290;48.674;9.018;2023-09-18T03:09:15;19.80;99.90
4556;DHT22;2290;48.674;9.018;2023-09-18T03:11:41;19.90;99.90
4556;DHT22;2290;48.674;9.018;2023-09-18T03:14:07;20.00;99.90
4556;DHT22;2290;48.674;9.018;2023-09-18T03:16:32;20.00;99.90
4556;DHT22;2290;48.674;9.018;2023-09-18T03:18:59;20.00;99.90
4556;DHT22;2290;48.674;9.018;2023-09-18T03:21:24;20.00;99.90
4556;DHT22;2290;48.674;9.018;2023-09-18T03:23:50;20.00;99.90
4556;DHT22;2290;48.674;9.018;2023-09-18T03:26:15;20.00;99.90
4556;DHT22;2290;48.674;9.018;2023-09-18T03:28:41;20.00;99.90
4556;DHT22;2290;48.674;9.018;2023-09-18T03:31:06;20.10;99.90
4556;DHT22;2290;48.674;9.018;2023-09-18T03:33:32;20.10;99.90
4556;DHT22;2290;48.674;9.018;2023-09-18T03:35:57;20.10;99.90
4556;DHT22;2290;48.674;9.018;2023-09-18T03:38:24;20.00;99.90
4556;DHT22;2290;48.674;9.018;2023-09-18T03:40:50;20.00;99.90
4556;DHT22;2290;48.674;9.018;2023-09-18T03:43:16;20.00;99.90
4556;DHT22;2290;48.674;9.018;2023-09-18T03:45:41;19.90;99.90
4556;DHT22;2290;48.674;9.018;2023-09-18T03:48:07;19.90;99.90
4556;DHT22;2290;48.674;9.018;2023-09-18T03:50:32;19.80;99.90
4556;DHT22;2290;48.674;9.018;2023-09-18T03:52:58;19.70;99.90
4556;DHT22;2290;48.674;9.018;2023-09-18T03:55:24;19.60;99.90
4556;DHT22;2290;48.674;9.018;2023-09-18T03:57:49;19.60;99.90
4556;DHT22;2290;48.674;9.018;2023-09-18T04:00:15;19.60;99.90
4556;DHT22;2290;48.674;9.018;2023-09-18T04:02:41;19.60;99.90
4556;DHT22;2290;48.674;9.018;2023-09-18T04:05:07;19.60;99.90
4556;DHT22;2290;48.674;9.018;2023-09-18T04:07:33;19.60;99.90
4556;DHT22;2290;48.674;9.018;2023-09-18T04:09:58;19.70;99.90
4556;DHT22;2290;48.674;9.018;2023-09-18T04:12:24;19.70;99.90
4556;DHT22;2290;48.674;9.018;2023-09-18T04:14:50;19.70;99.90
4556;DHT22;2290;48.674;9.018;2023-09-18T04:17:16;19.70;99.90
4556;DHT22;2290;48.674;9.018;2023-09-18T04:19:42;19.70;99.90
4556;DHT22;2290;48.674;9.018;2023-09-18T04:22:08;19.80;99.90
4556;DHT22;2290;48.674;9.018;2023-09-18T04:24:34;19.90;99.90
4556;DHT22;2290;48.674;9.018;2023-09-18T04:27:00;19.90;99.90
4556;DHT22;2290;48.674;9.018;2023-09-18T04:29:26;19.90;99.90
4556;DHT22;2290;48.674;9.018;2023-09-18T04:31:52;19.90;99.90
4556;DHT22;2290;48.674;9.018;2023-09-18T04:34:19;19.90;99.90
4556;DHT22;2290;48.674;9.018;2023-09-18T04:36:45;20.00;99.90
4556;DHT22;2290;48.674;9.018;2023-09-18T04:39:10;20.00;99.90
4556;DHT22;2290;48.674;9.018;2023-09-18T04:41:36;20.10;99.90
4556;DHT22;2290;48.674;9.018;2023-09-18T04:44:01;20.10;99.90
4556;DHT22;2290;48.674;9.018;2023-09-18T04:46:28;20.20;99.90
4556;DHT22;2290;48.674;9.018;2023-09-18T04:48:55;20.20;99.90
4556;DHT22;2290;48.674;9.018;2023-09-18T04:51:20;20.20;99.90
4556;DHT22;2290;48.674;9.018;2023-09-18T04:53:46;20.30;99.90
4556;DHT22;2290;48.674;9.018;2023-09-18T04:56:11;20.30;99.90
4556;DHT22;2290;48.674;9.018;2023-09-18T04:58:38;20.30;99.90
4556;DHT22;2290;48.674;9.018;2023-09-18T05:01:04;20.30;99.90
4556;DHT22;2290;48.674;9.018;2023-09-18T05:03:35;20.30;99.90
4556;DHT22;2290;48.674;9.018;2023-09-18T05:06:01;20.30;99.90
4556;DHT22;2290;48.674;9.018;2023-09-18T05:08:28;20.30;99.90
4556;DHT22;2290;48.674;9.018;2023-09-18T05:10:53;20.30;99.90
4556;DHT22;2290;48.674;9.018;2023-09-18T05:13:19;20.30;99.90
4556;DHT22;2290;48.674;9.018;2023-09-18T05:15:44;20.40;99.90
4556;DHT22;2290;48.674;9.018;2023-09-18T05:18:10;20.40;99.90
4556;DHT22;2290;48.674;9.018;2023-09-18T05:20:36;20.40;99.90
4556;DHT22;2290;48.674;9.018;2023-09-18T05:23:01;20.30;99.90
4556;DHT22;2290;48.674;9.018;2023-09-18T05:25:28;20.30;99.90
4556;DHT22;2290;48.674;9.018;2023-09-18T05:27:58;20.30;99.90
4556;DHT22;2290;48.674;9.018;2023-09-18T05:30:30;20.30;99.90
4556;DHT22;2290;48.674;9.018;2023-09-18T05:32:58;20.30;99.90
4556;DHT22;2290;48.674;9.018;2023-09-18T05:35:33;20.30;99.90
4556;DHT22;2290;48.674;9.018;2023-09-18T05:37:58;20.30;99.90
4556;DHT22;2290;48.674;9.018;2023-09-18T05:40:25;20.30;99.90
4556;DHT22;2290;48.674;9.018;2023-09-18T05:42:54;20.40;99.90
4556;DHT22;2290;48.674;9.018;2023-09-18T05:45:20;20.30;99.90
4556;DHT22;2290;48.674;9.018;2023-09-18T05:47:47;20.40;99.90
4556;DHT22;2290;48.674;9.018;2023-09-18T05:50:13;20.40;99.90
4556;DHT22;2290;48.674;9.018;2023-09-18T05:52:46;20.30;99.90
4556;DHT22;2290;48.674;9.018;2023-09-18T05:55:16;20.40;99.90
4556;DHT22;2290;48.674;9.018;2023-09-18T05:57:41;20.30;99.90
4556;DHT22;2290;48.674;9.018;2023-09-18T06:00:08;20.40;99.90
4556;DHT22;2290;48.674;9.018;2023-09-18T06:02:33;20.30;99.90
4556;DHT22;2290;48.674;9.018;2023-09-18T06:05:00;20.30;99.90
4556;DHT22;2290;48.674;9.018;2023-09-18T06:07:26;20.40;99.90
4556;DHT22;2290;48.674;9.018;2023-09-18T06:09:52;20.30;99.90
4556;DHT22;2290;48.674;9.018;2023-09-18T06:12:18;20.40;99.90
4556;DHT22;2290;48.674;9.018;2023-09-18T06:14:44;20.40;99.90
4556;DHT22;2290;48.674;9.018;2023-09-18T06:17:10;20.30;99.90
4556;DHT22;2290;48.674;9.018;2023-09-18T06:19:36;20.30;99.90
4556;DHT22;2290;48.674;9.018;2023-09-18T06:22:02;20.20;99.90
4556;DHT22;2290;48.674;9.018;2023-09-18T06:24:27;20.20;99.90
4556;DHT22;2290;48.674;9.018;2023-09-18T06:26:53;20.20;99.90
4556;DHT22;2290;48.674;9.018;2023-09-18T06:29:19;20.10;99.90
4556;DHT22;2290;48.674;9.018;2023-09-18T06:31:45;20.20;99.90
4556;DHT22;2290;48.674;9.018;2023-09-18T06:34:10;20.10;99.90
4556;DHT22;2290;48.674;9.018;2023-09-18T06:36:36;20.10;99.90
4556;DHT22;2290;48.674;9.018;2023-09-18T06:39:02;19.90;99.90
4556;DHT22;2290;48.674;9.018;2023-09-18T06:41:28;20.00;99.90
4556;DHT22;2290;48.674;9.018;2023-09-18T06:43:54;19.90;99.90
4556;DHT22;2290;48.674;9.018;2023-09-18T06:46:19;19.90;99.90
4556;DHT22;2290;48.674;9.018;2023-09-18T06:48:45;19.80;99.90
4556;DHT22;2290;48.674;9.018;2023-09-18T06:51:15;19.80;99.90
4556;DHT22;2290;48.674;9.018;2023-09-18T06:53:41;19.80;99.90
4556;DHT22;2290;48.674;9.018;2023-09-18T06:56:06;19.80;99.90
4556;DHT22;2290;48.674;9.018;2023-09-18T06:58:34;19.80;99.90
4556;DHT22;2290;48.674;9.018;2023-09-18T07:01:00;19.80;99.90
4556;DHT22;2290;48.674;9.018;2023-09-18T07:03:25;19.80;99.90
4556;DHT22;2290;48.674;9.018;2023-09-18T07:05:51;19.90;99.90
4556;DHT22;2290;48.674;9.018;2023-09-18T07:08:16;19.80;99.90
4556;DHT22;2290;48.674;9.018;2023-09-18T07:10:45;19.80;99.90
4556;DHT22;2290;48.674;9.018;2023-09-18T07:13:10;19.80;99.90
4556;DHT22;2290;48.674;9.018;2023-09-18T07:15:37;19.80;99.90
4556;DHT22;2290;48.674;9.018;2023-09-18T07:18:03;19.90;99.90
4556;DHT22;2290;48.674;9.018;2023-09-18T07:20:29;19.80;99.90
4556;DHT22;2290;48.674;9.018;2023-09-18T07:22:55;19.80;99.90
4556;DHT22;2290;48.674;9.018;2023-09-18T07:25:21;19.80;99.90
4556;DHT22;2290;48.674;9.018;2023-09-18T07:27:47;19.80;99.90
4556;DHT22;2290;48.674;9.018;2023-09-18T07:30:14;19.80;99.90
4556;DHT22;2290;48.674;9.018;2023-09-18T07:32:42;19.90;99.90
4556;DHT22;2290;48.674;9.018;2023-09-18T07:35:09;19.90;99.90
4556;DHT22;2290;48.674;9.018;2023-09-18T07:37:36;19.80;99.90
4556;DHT22;2290;48.674;9.018;2023-09-18T07:40:03;19.80;99.90
4556;DHT22;2290;48.674;9.018;2023-09-18T07:42:29;19.80;99.90
4556;DHT22;2290;48.674;9.018;2023-09-18T07:45:01;19.70;99.90
4556;DHT22;2290;48.674;9.018;2023-09-18T07:47:27;19.70;99.90
4556;DHT22;2290;48.674;9.018;2023-09-18T07:49:53;19.70;99.90
4556;DHT22;2290;48.674;9.018;2023-09-18T07:52:19;19.60;99.90
4556;DHT22;2290;48.674;9.018;2023-09-18T07:54:45;19.70;99.90
4556;DHT22;2290;48.674;9.018;2023-09-18T07:57:11;19.70;99.90
4556;DHT22;2290;48.674;9.018;2023-09-18T07:59:36;19.70;99.90
4556;DHT22;2290;48.674;9.018;2023-09-18T08:02:02;19.70;99.90
4556;DHT22;2290;48.674;9.018;2023-09-18T08:04:31;19.70;99.90
4556;DHT22;2290;48.674;9.018;2023-09-18T08:06:57;19.60;99.90
4556;DHT22;2290;48.674;9.018;2023-09-18T08:09:22;19.60;99.90
4556;DHT22;2290;48.674;9.018;2023-09-18T08:11:48;19.50;99.90
4556;DHT22;2290;48.674;9.018;2023-09-18T08:14:15;19.50;99.90
4556;DHT22;2290;48.674;9.018;2023-09-18T08:16:41;19.50;99.90
4556;DHT22;2290;48.674;9.018;2023-09-18T08:19:06;19.50;99.90
4556;DHT22;2290;48.674;9.018;2023-09-18T08:21:32;19.50;99.90
4556;DHT22;2290;48.674;9.018;2023-09-18T08:23:58;19.40;99.90
4556;DHT22;2290;48.674;9.018;2023-09-18T08:26:24;19.40;99.90
4556;DHT22;2290;48.674;9.018;2023-09-18T08:28:50;19.30;99.90
4556;DHT22;2290;48.674;9.018;2023-09-18T08:31:16;19.30;99.90
4556;DHT22;2290;48.674;9.018;2023-09-18T08:33:42;19.30;99.90
4556;DHT22;2290;48.674;9.018;2023-09-18T08:36:08;19.20;99.90
4556;DHT22;2290;48.674;9.018;2023-09-18T08:38:34;19.00;99.90
4556;DHT22;2290;48.674;9.018;2023-09-18T08:41:00;19.00;99.90
4556;DHT22;2290;48.674;9.018;2023-09-18T08:43:26;18.90;99.90
4556;DHT22;2290;48.674;9.018;2023-09-18T08:45:55;19.00;99.90
4556;DHT22;2290;48.674;9.018;2023-09-18T08:48:27;19.00;99.90
4556;DHT22;2290;48.674;9.018;2023-09-18T08:51:04;18.90;99.90
4556;DHT22;2290;48.674;9.018;2023-09-18T08:53:35;18.70;99.90
4556;DHT22;2290;48.674;9.018;2023-09-18T08:56:02;18.80;99.90
4556;DHT22;2290;48.674;9.018;2023-09-18T08:58:34;18.80;99.90
4556;DHT22;2290;48.674;9.018;2023-09-18T09:01:04;18.80;99.90
4556;DHT22;2290;48.674;9.018;2023-09-18T09:03:31;18.60;99.90
4556;DHT22;2290;48.674;9.018;2023-09-18T09:05:59;18.60;99.90
4556;DHT22;2290;48.674;9.018;2023-09-18T09:08:27;18.50;99.90
4556;DHT22;2290;48.674;9.018;2023-09-18T09:10:53;18.60;99.90
4556;DHT22;2290;48.674;9.018;2023-09-18T09:13:19;18.60;99.90
4556;DHT22;2290;48.674;9.018;2023-09-18T09:15:52;18.60;99.90
4556;DHT22;2290;48.674;9.018;2023-09-18T09:18:19;18.60;99.90
4556;DHT22;2290;48.674;9.018;2023-09-18T09:20:56;18.60;99.90
4556;DHT22;2290;48.674;9.018;2023-09-18T09:23:49;18.70;99.90
4556;DHT22;2290;48.674;9.018;2023-09-18T09:26:18;18.70;99.90
4556;DHT22;2290;48.674;9.018;2023-09-18T09:28:44;18.70;99.90
4556;DHT22;2290;48.674;9.018;2023-09-18T09:31:10;18.70;99.90
4556;DHT22;2290;48.674;9.018;2023-09-18T09:33:37;18.80;99.90
4556;DHT22;2290;48.674;9.018;2023-09-18T09:36:06;18.80;99.90
4556;DHT22;2290;48.674;9.018;2023-09-18T09:38:34;19.00;99.90
4556;DHT22;2290;48.674;9.018;2023-09-18T09:41:00;19.10;99.90
4556;DHT22;2290;48.674;9.018;2023-09-18T09:43:27;19.10;99.90
4556;DHT22;2290;48.674;9.018;2023-09-18T09:45:57;19.20;99.90
4556;DHT22;2290;48.674;9.018;2023-09-18T09:48:24;19.30;99.90
4556;DHT22;2290;48.674;9.018;2023-09-18T09:50:51;19.30;99.90
4556;DHT22;2290;48.674;9.018;2023-09-18T09:53:17;19.30;99.90
4556;DHT22;2290;48.674;9.018;2023-09-18T09:55:43;19.40;99.90
4556;DHT22;2290;48.674;9.018;2023-09-18T09:58:10;19.40;99.90
4556;DHT22;2290;48.674;9.018;2023-09-18T10:00:46;19.40;99.90
4556;DHT22;2290;48.674;9.018;2023-09-18T10:03:16;19.30;99.90
4556;DHT22;2290;48.674;9.018;2023-09-18T10:05:44;19.20;99.90
4556;DHT22;2290;48.674;9.018;2023-09-18T10:08:12;19.20;99.90
4556;DHT22;2290;48.674;9.018;2023-09-18T10:10:45;19.20;99.90
4556;DHT22;2290;48.674;9.018;2023-09-18T10:13:28;19.10;99.90
4556;DHT22;2290;48.674;9.018;2023-09-18T10:15:59;19.10;99.90
4556;DHT22;2290;48.674;9.018;2023-09-18T10:18:28;19.10;99.90
4556;DHT22;2290;48.674;9.018;2023-09-18T10:21:09;19.00;99.90
4556;DHT22;2290;48.674;9.018;2023-09-18T10:23:46;18.90;99.90
4556;DHT22;2290;48.674;9.018;2023-09-18T10:26:20;18.90;99.90
4556;DHT22;2290;48.674;9.018;2023-09-18T10:28:49;18.80;99.90
4556;DHT22;2290;48.674;9.018;2023-09-18T10:31:19;18.90;99.90
4556;DHT22;2290;48.674;9.018;2023-09-18T10:33:46;18.90;99.90
4556;DHT22;2290;48.674;9.018;2023-09-18T10:36:14;19.00;99.90
4556;DHT22;2290;48.674;9.018;2023-09-18T10:38:43;19.00;99.90
4556;DHT22;2290;48.674;9.018;2023-09-18T10:41:10;19.00;99.90
4556;DHT22;2290;48.674;9.018;2023-09-18T10:43:37;19.10;99.90
4556;DHT22;2290;48.674;9.018;2023-09-18T10:46:03;19.10;99.90
4556;DHT22;2290;48.674;9.018;2023-09-18T10:48:29;19.00;99.90
4556;DHT22;2290;48.674;9.018;2023-09-18T10:50:55;19.20;99.90
4556;DHT22;2290;48.674;9.018;2023-09-18T10:53:21;19.10;99.90
4556;DHT22;2290;48.674;9.018;2023-09-18T10:55:50;19.30;99.90
4556;DHT22;2290;48.674;9.018;2023-09-18T10:58:23;19.30;99.90
4556;DHT22;2290;48.674;9.018;2023-09-18T11:00:50;19.30;99.90
4556;DHT22;2290;48.674;9.018;2023-09-18T11:03:18;19.40;99.90
4556;DHT22;2290;48.674;9.018;2023-09-18T11:05:45;19.40;99.90
4556;DHT22;2290;48.674;9.018;2023-09-18T11:08:31;19.50;99.90
4556;DHT22;2290;48.674;9.018;2023-09-18T11:11:00;19.60;99.90
4556;DHT22;2290;48.674;9.018;2023-09-18T11:13:39;19.70;99.90
4556;DHT22;2290;48.674;9.018;2023-09-18T11:21:26;19.70;99.90
4556;DHT22;2290;48.674;9.018;2023-09-18T11:24:03;19.80;99.90
4556;DHT22;2290;48.674;9.018;2023-09-18T11:26:34;19.90;99.90
4556;DHT22;2290;48.674;9.018;2023-09-18T11:31:50;19.80;99.90
4556;DHT22;2290;48.674;9.018;2023-09-18T11:34:27;19.80;99.90
4556;DHT22;2290;48.674;9.018;2023-09-18T11:36:54;19.90;99.90
4556;DHT22;2290;48.674;9.018;2023-09-18T11:39:35;19.90;99.90
4556;DHT22;2290;48.674;9.018;2023-09-18T11:42:08;19.90;99.90
4556;DHT22;2290;48.674;9.018;2023-09-18T11:44:35;20.00;99.90
4556;DHT22;2290;48.674;9.018;2023-09-18T11:47:10;20.00;99.90
4556;DHT22;2290;48.674;9.018;2023-09-18T11:49:51;20.00;99.90
4556;DHT22;2290;48.674;9.018;2023-09-18T11:52:22;19.90;99.90
4556;DHT22;2290;48.674;9.018;2023-09-18T11:54:48;19.90;99.90
4556;DHT22;2290;48.674;9.018;2023-09-18T11:57:15;20.00;99.90
4556;DHT22;2290;48.674;9.018;2023-09-18T11:59:41;19.90;99.90
4556;DHT22;2290;48.674;9.018;2023-09-18T12:02:09;19.80;99.90
4556;DHT22;2290;48.674;9.018;2023-09-18T12:04:35;19.80;99.90
4556;DHT22;2290;48.674;9.018;2023-09-18T12:07:03;19.90;99.90
4556;DHT22;2290;48.674;9.018;2023-09-18T12:09:33;19.80;99.90
4556;DHT22;2290;48.674;9.018;2023-09-18T12:12:00;20.00;99.90
4556;DHT22;2290;48.674;9.018;2023-09-18T12:14:30;20.00;99.90
4556;DHT22;2290;48.674;9.018;2023-09-18T12:16:56;20.00;99.90
4556;DHT22;2290;48.674;9.018;2023-09-18T12:19:22;20.10;99.90
4556;DHT22;2290;48.674;9.018;2023-09-18T12:21:49;20.10;99.90
4556;DHT22;2290;48.674;9.018;2023-09-18T12:24:20;20.10;99.90
4556;DHT22;2290;48.674;9.018;2023-09-18T12:26:45;20.20;99.90
4556;DHT22;2290;48.674;9.018;2023-09-18T12:29:11;20.20;99.90
4556;DHT22;2290;48.674;9.018;2023-09-18T12:31:37;20.40;99.90
4556;DHT22;2290;48.674;9.018;2023-09-18T12:34:04;20.40;99.90
4556;DHT22;2290;48.674;9.018;2023-09-18T12:36:32;20.60;99.90
4556;DHT22;2290;48.674;9.018;2023-09-18T12:38:59;20.70;99.90
4556;DHT22;2290;48.674;9.018;2023-09-18T12:41:26;20.90;99.90
4556;DHT22;2290;48.674;9.018;2023-09-18T12:43:52;20.80;99.90
4556;DHT22;2290;48.674;9.018;2023-09-18T12:46:19;20.70;99.90
4556;DHT22;2290;48.674;9.018;2023-09-18T12:48:47;20.90;99.90
4556;DHT22;2290;48.674;9.018;2023-09-18T12:51:13;20.80;99.90
4556;DHT22;2290;48.674;9.018;2023-09-18T12:53:43;20.90;99.90
4556;DHT22;2290;48.674;9.018;2023-09-18T12:56:18;21.00;99.90
4556;DHT22;2290;48.674;9.018;2023-09-18T12:58:47;20.90;99.90
4556;DHT22;2290;48.674;9.018;2023-09-18T13:01:13;20.80;99.90
4556;DHT22;2290;48.674;9.018;2023-09-18T13:07:11;21.00;99.90
4556;DHT22;2290;48.674;9.018;2023-09-18T13:09:42;21.00;99.90
4556;DHT22;2290;48.674;9.018;2023-09-18T13:12:47;21.10;99.90
4556;DHT22;2290;48.674;9.018;2023-09-18T13:15:24;21.10;99.90
4556;DHT22;2290;48.674;9.018;2023-09-18T13:17:53;21.10;99.90
4556;DHT22;2290;48.674;9.018;2023-09-18T13:20:27;21.20;99.90
4556;DHT22;2290;48.674;9.018;2023-09-18T13:22:58;21.20;99.90
4556;DHT22;2290;48.674;9.018;2023-09-18T13:25:39;21.20;99.90
4556;DHT22;2290;48.674;9.018;2023-09-18T13:28:11;21.40;99.90
4556;DHT22;2290;48.674;9.018;2023-09-18T13:30:38;21.80;99.90
4556;DHT22;2290;48.674;9.018;2023-09-18T13:33:09;22.10;99.90
4556;DHT22;2290;48.674;9.018;2023-09-18T13:35:43;22.20;99.90
4556;DHT22;2290;48.674;9.018;2023-09-18T13:38:12;21.80;99.90
4556;DHT22;2290;48.674;9.018;2023-09-18T13:40:44;21.70;99.90
4556;DHT22;2290;48.674;9.018;2023-09-18T13:43:11;21.70;99.90
4556;DHT22;2290;48.674;9.018;2023-09-18T13:46:00;21.60;99.90
4556;DHT22;2290;48.674;9.018;2023-09-18T13:48:25;21.50;99.90
4556;DHT22;2290;48.674;9.018;2023-09-18T13:50:56;21.60;99.90
4556;DHT22;2290;48.674;9.018;2023-09-18T13:53:22;21.50;99.90
4556;DHT22;2290;48.674;9.018;2023-09-18T13:56:01;21.60;99.90
4556;DHT22;2290;48.674;9.018;2023-09-18T13:58:34;21.40;99.90
4556;DHT22;2290;48.674;9.018;2023-09-18T14:01:06;21.40;99.90
4556;DHT22;2290;48.674;9.018;2023-09-18T14:03:33;21.50;99.90
4556;DHT22;2290;48.674;9.018;2023-09-18T14:06:06;21.50;99.90
4556;DHT22;2290;48.674;9.018;2023-09-18T14:08:40;21.70;99.90
4556;DHT22;2290;48.674;9.018;2023-09-18T14:11:06;21.90;99.90
4556;DHT22;2290;48.674;9.018;2023-09-18T14:13:32;21.90;99.90
4556;DHT22;2290;48.674;9.018;2023-09-18T14:15:58;21.90;99.90
4556;DHT22;2290;48.674;9.018;2023-09-18T14:18:23;21.80;99.90
4556;DHT22;2290;48.674;9.018;2023-09-18T14:20:49;21.80;99.90
4556;DHT22;2290;48.674;9.018;2023-09-18T14:23:14;21.70;99.90
4556;DHT22;2290;48.674;9.018;2023-09-18T14:25:40;21.70;99.90
4556;DHT22;2290;48.674;9.018;2023-09-18T14:28:06;21.90;99.90
4556;DHT22;2290;48.674;9.018;2023-09-18T14:30:33;22.00;99.90
4556;DHT22;2290;48.674;9.018;2023-09-18T14:32:59;22.20;99.90
4556;DHT22;2290;48.674;9.018;2023-09-18T14:35:26;22.30;99.90
4556;DHT22;2290;48.674;9.018;2023-09-18T14:37:52;22.40;99.90
4556;DHT22;2290;48.674;9.018;2023-09-18T14:40:18;22.40;99.90
4556;DHT22;2290;48.674;9.018;2023-09-18T14:42:46;22.90;99.90
4556;DHT22;2290;48.674;9.018;2023-09-18T14:45:12;23.80;99.90
4556;DHT22;2290;48.674;9.018;2023-09-18T14:47:38;24.80;99.90
4556;DHT22;2290;48.674;9.018;2023-09-18T14:50:05;25.60;99.90
4556;DHT22;2290;48.674;9.018;2023-09-18T14:52:31;26.00;99.90
4556;DHT22;2290;48.674;9.018;2023-09-18T14:54:57;27.10;99.90
4556;DHT22;2290;48.674;9.018;2023-09-18T14:57:23;27.10;99.90
4556;DHT22;2290;48.674;9.018;2023-09-18T14:59:49;26.50;99.90
4556;DHT22;2290;48.674;9.018;2023-09-18T15:02:15;26.00;99.90
4556;DHT22;2290;48.674;9.018;2023-09-18T15:04:45;24.80;99.90
4556;DHT22;2290;48.674;9.018;2023-09-18T15:07:13;24.10;99.90
4556;DHT22;2290;48.674;9.018;2023-09-18T15:09:39;23.70;99.90
4556;DHT22;2290;48.674;9.018;2023-09-18T15:12:05;23.20;99.90
4556;DHT22;2290;48.674;9.018;2023-09-18T15:14:34;23.00;99.90
4556;DHT22;2290;48.674;9.018;2023-09-18T15:17:00;23.30;99.90
4556;DHT22;2290;48.674;9.018;2023-09-18T15:19:26;23.90;99.90
4556;DHT22;2290;48.674;9.018;2023-09-18T15:21:51;24.60;99.90
4556;DHT22;2290;48.674;9.018;2023-09-18T15:24:18;25.30;99.90
4556;DHT22;2290;48.674;9.018;2023-09-18T15:26:44;25.60;99.90
4556;DHT22;2290;48.674;9.018;2023-09-18T15:29:09;27.20;99.90
4556;DHT22;2290;48.674;9.018;2023-09-18T15:31:35;27.80;99.90
4556;DHT22;2290;48.674;9.018;2023-09-18T15:34:01;28.30;99.90
4556;DHT22;2290;48.674;9.018;2023-09-18T15:36:26;28.80;99.90
4556;DHT22;2290;48.674;9.018;2023-09-18T15:38:52;29.70;99.90
4556;DHT22;2290;48.674;9.018;2023-09-18T15:41:18;30.20;99.90
4556;DHT22;2290;48.674;9.018;2023-09-18T15:43:43;31.10;99.90
4556;DHT22;2290;48.674;9.018;2023-09-18T15:46:10;32.60;99.90
4556;DHT22;2290;48.674;9.018;2023-09-18T15:48:36;32.50;98.90
4556;DHT22;2290;48.674;9.018;2023-09-18T15:51:01;33.10;97.80
4556;DHT22;2290;48.674;9.018;2023-09-18T15:53:28;33.40;97.20
4556;DHT22;2290;48.674;9.018;2023-09-18T15:55:53;33.00;96.80
4556;DHT22;2290;48.674;9.018;2023-09-18T15:58:19;32.60;96.70
4556;DHT22;2290;48.674;9.018;2023-09-18T16:00:49;30.80;98.00
4556;DHT22;2290;48.674;9.018;2023-09-18T16:03:14;28.70;99.60
4556;DHT22;2290;48.674;9.018;2023-09-18T16:05:41;27.20;99.90
4556;DHT22;2290;48.674;9.018;2023-09-18T16:08:06;26.30;99.90
4556;DHT22;2290;48.674;9.018;2023-09-18T16:10:32;25.60;99.90
4556;DHT22;2290;48.674;9.018;2023-09-18T16:12:57;25.00;99.90
4556;DHT22;2290;48.674;9.018;2023-09-18T16:15:23;24.20;99.90
4556;DHT22;2290;48.674;9.018;2023-09-18T16:17:49;23.70;99.90